createdAt,value
2022-11-13T00:01:11.255Z,1028
2022-11-13T00:03:08.241Z,1028
2022-11-13T00:05:09.438Z,1028
2022-11-13T00:07:05.214Z,1028
2022-11-13T00:09:07.272Z,1028
2022-11-13T00:11:06.286Z,1028
2022-11-13T00:13:09.966Z,1028
2022-11-13T00:15:07.614Z,1028
2022-11-13T00:17:08.627Z,1028
2022-11-13T00:19:05.932Z,1028
2022-11-13T00:21:07.363Z,1028
2022-11-13T00:23:07.700Z,1028
2022-11-13T00:25:10.896Z,1028
2022-11-13T00:27:07.649Z,1028
2022-11-13T00:29:10.394Z,1028
2022-11-13T00:31:11.848Z,1028
2022-11-13T00:33:06.645Z,1028
2022-11-13T00:35:06.307Z,1028
2022-11-13T00:37:09.442Z,1028
2022-11-13T00:39:08.606Z,1028
2022-11-13T00:41:05.926Z,1028
2022-11-13T00:43:07.950Z,1028
2022-11-13T00:45:06.547Z,1028
2022-11-13T00:47:07.980Z,1028
2022-11-13T00:49:09.866Z,1028
2022-11-13T00:51:06.345Z,1028
2022-11-13T00:53:12.631Z,1028
2022-11-13T00:55:08.559Z,1028
2022-11-13T00:57:09.491Z,1028
2022-11-13T00:59:10.340Z,1028
2022-11-13T01:01:05.894Z,1027
2022-11-13T01:03:06.282Z,1027
2022-11-13T01:05:10.172Z,1027
2022-11-13T01:07:08.625Z,1027
2022-11-13T01:09:08.901Z,1027
2022-11-13T01:11:09.012Z,1027
2022-11-13T01:13:11.029Z,1027
2022-11-13T01:15:09.453Z,1027
2022-11-13T01:17:09.012Z,1027
2022-11-13T01:19:09.772Z,1027
2022-11-13T01:21:09.578Z,1027
2022-11-13T01:23:07.594Z,1027
2022-11-13T01:25:10.425Z,1027
2022-11-13T01:27:11.075Z,1027
2022-11-13T01:29:08.046Z,1027
2022-11-13T01:31:07.574Z,1027
2022-11-13T01:33:09.847Z,1027
2022-11-13T01:35:06.255Z,1027
2022-11-13T01:37:08.625Z,1027
2022-11-13T01:39:07.718Z,1027
2022-11-13T01:41:10.419Z,1027
2022-11-13T01:43:10.390Z,1027
2022-11-13T01:45:09.052Z,1027
2022-11-13T01:47:07.914Z,1027
2022-11-13T01:49:09.423Z,1027
2022-11-13T01:51:10.353Z,1027
2022-11-13T01:53:10.337Z,1027
2022-11-13T01:55:10.811Z,1027
2022-11-13T01:57:07.698Z,1027
2022-11-13T01:59:11.145Z,1027
2022-11-13T02:01:09.574Z,1027
2022-11-13T02:03:08.052Z,1027
2022-11-13T02:05:09.963Z,1027
2022-11-13T02:07:06.370Z,1027
2022-11-13T02:09:11.026Z,1027
2022-11-13T02:11:06.614Z,1027
2022-11-13T02:13:09.368Z,1027
2022-11-13T02:15:07.606Z,1027
2022-11-13T02:17:06.312Z,1027
2022-11-13T02:19:10.018Z,1027
2022-11-13T02:21:10.471Z,1027
2022-11-13T02:23:09.001Z,1026
2022-11-13T02:25:05.983Z,1026
2022-11-13T02:27:07.664Z,1026
2022-11-13T02:29:09.958Z,1026
2022-11-13T02:31:09.272Z,1026
2022-11-13T02:33:08.059Z,1026
2022-11-13T02:35:10.986Z,1026
2022-11-13T02:37:05.888Z,1026
2022-11-13T02:39:09.558Z,1026
2022-11-13T02:43:08.824Z,1026
2022-11-13T02:45:06.627Z,1026
2022-11-13T02:47:06.301Z,1026
2022-11-13T02:49:09.864Z,1026
2022-11-13T02:51:08.548Z,1026
2022-11-13T02:53:06.276Z,1026
2022-11-13T02:55:07.323Z,1026
2022-11-13T02:57:10.604Z,1026
2022-11-13T02:59:08.420Z,1026
2022-11-13T03:01:08.940Z,1026
2022-11-13T03:03:09.314Z,1026
2022-11-13T03:05:12.745Z,1026
2022-11-13T03:07:09.238Z,1026
2022-11-13T03:09:09.880Z,1026
2022-11-13T03:11:10.320Z,1026
2022-11-13T03:13:07.708Z,1026
2022-11-13T03:15:06.682Z,1026
2022-11-13T03:17:06.448Z,1026
2022-11-13T03:19:09.995Z,1026
2022-11-13T03:21:07.368Z,1026
2022-11-13T03:23:09.007Z,1026
2022-11-13T03:25:10.378Z,1026
2022-11-13T03:27:05.983Z,1026
2022-11-13T03:29:10.162Z,1026
2022-11-13T03:31:10.730Z,1026
2022-11-13T03:33:09.804Z,1026
2022-11-13T03:35:08.984Z,1026
2022-11-13T03:37:06.334Z,1026
2022-11-13T03:39:08.962Z,1026
2022-11-13T03:41:07.701Z,1026
2022-11-13T03:43:10.370Z,1026
2022-11-13T03:45:06.746Z,1026
2022-11-13T03:47:09.051Z,1026
2022-11-13T03:49:10.496Z,1026
2022-11-13T03:51:10.419Z,1026
2022-11-13T03:53:09.865Z,1026
2022-11-13T03:55:09.026Z,1026
2022-11-13T03:57:06.335Z,1026
2022-11-13T03:59:09.939Z,1025
2022-11-13T04:01:09.018Z,1025
2022-11-13T04:03:08.096Z,1025
2022-11-13T04:05:10.248Z,1025
2022-11-13T04:07:06.349Z,1025
2022-11-13T04:09:11.309Z,1025
2022-11-13T04:11:07.850Z,1025
2022-11-13T04:13:10.699Z,1025
2022-11-13T04:15:09.430Z,1025
2022-11-13T04:17:08.069Z,1025
2022-11-13T04:19:07.696Z,1025
2022-11-13T04:21:09.419Z,1025
2022-11-13T04:23:10.476Z,1025
2022-11-13T04:25:09.391Z,1025
2022-11-13T04:27:11.322Z,1025
2022-11-13T04:29:11.070Z,1025
2022-11-13T04:31:07.747Z,1025
2022-11-13T04:33:10.412Z,1025
2022-11-13T04:35:09.332Z,1025
2022-11-13T04:37:09.451Z,1025
2022-11-13T04:39:09.761Z,1025
2022-11-13T04:41:09.656Z,1025
2022-11-13T04:43:08.930Z,1025
2022-11-13T04:45:11.402Z,1025
2022-11-13T04:47:07.566Z,1025
2022-11-13T04:49:06.362Z,1025
2022-11-13T04:51:09.506Z,1025
2022-11-13T04:53:08.689Z,1025
2022-11-13T04:55:10.813Z,1025
2022-11-13T04:57:09.484Z,1025
2022-11-13T04:59:08.012Z,1025
2022-11-13T05:01:10.379Z,1025
2022-11-13T05:03:08.744Z,1025
2022-11-13T05:05:07.999Z,1025
2022-11-13T05:07:10.714Z,1025
2022-11-13T05:09:06.674Z,1025
2022-11-13T05:11:10.924Z,1025
2022-11-13T05:13:09.745Z,1025
2022-11-13T05:15:09.302Z,1025
2022-11-13T05:17:10.245Z,1025
2022-11-13T05:19:09.405Z,1025
2022-11-13T05:21:09.939Z,1025
2022-11-13T05:23:09.566Z,1025
2022-11-13T05:25:08.429Z,1025
2022-11-13T05:27:10.445Z,1025
2022-11-13T05:29:06.723Z,1025
2022-11-13T05:31:09.958Z,1025
2022-11-13T05:33:06.398Z,1025
2022-11-13T05:35:06.326Z,1025
2022-11-13T05:37:09.430Z,1025
2022-11-13T05:39:08.043Z,1025
2022-11-13T05:41:08.177Z,1025
2022-11-13T05:43:09.837Z,1025
2022-11-13T05:45:10.325Z,1025
2022-11-13T05:47:10.737Z,1025
2022-11-13T05:49:08.068Z,1025
2022-11-13T05:51:08.026Z,1025
2022-11-13T05:53:07.734Z,1025
2022-11-13T05:55:08.581Z,1025
2022-11-13T05:57:09.056Z,1025
2022-11-13T05:59:10.374Z,1025
2022-11-13T06:01:09.455Z,1025
2022-11-13T06:03:08.635Z,1025
2022-11-13T06:05:10.756Z,1024
2022-11-13T06:07:08.713Z,1025
2022-11-13T06:09:12.123Z,1025
2022-11-13T06:11:10.337Z,1024
2022-11-13T06:13:07.702Z,1024
2022-11-13T06:15:10.034Z,1024
2022-11-13T06:17:10.371Z,1024
2022-11-13T06:19:10.227Z,1024
2022-11-13T06:21:06.766Z,1024
2022-11-13T06:23:09.449Z,1024
2022-11-13T06:25:08.962Z,1024
2022-11-13T06:27:11.190Z,1024
2022-11-13T06:29:09.438Z,1024
2022-11-13T06:31:10.380Z,1024
2022-11-13T06:33:06.366Z,1024
2022-11-13T06:35:05.980Z,1024
2022-11-13T06:37:10.822Z,1024
2022-11-13T06:39:10.065Z,1024
2022-11-13T06:41:08.978Z,1024
2022-11-13T06:43:06.739Z,1024
2022-11-13T06:45:10.432Z,1024
2022-11-13T06:47:09.402Z,1024
2022-11-13T06:49:07.375Z,1024
2022-11-13T06:51:10.704Z,1024
2022-11-13T06:53:06.668Z,1024
2022-11-13T06:55:09.482Z,1024
2022-11-13T06:57:08.172Z,1024
2022-11-13T06:59:10.471Z,1024
2022-11-13T07:01:10.168Z,1024
2022-11-13T07:03:08.167Z,1024
2022-11-13T07:05:09.535Z,1024
2022-11-13T07:07:06.845Z,1024
2022-11-13T07:09:10.761Z,1024
2022-11-13T07:11:06.903Z,1024
2022-11-13T07:13:09.837Z,1024
2022-11-13T07:15:10.885Z,1024
2022-11-13T07:17:09.470Z,1024
2022-11-13T07:19:09.901Z,1024
2022-11-13T07:21:09.130Z,1024
2022-11-13T07:23:09.980Z,1024
2022-11-13T07:25:08.580Z,1024
2022-11-13T07:27:10.828Z,1024
2022-11-13T07:29:08.047Z,1024
2022-11-13T07:31:06.403Z,1024
2022-11-13T07:33:09.423Z,1024
2022-11-13T07:35:08.132Z,1024
2022-11-13T07:37:06.379Z,1024
2022-11-13T07:39:06.683Z,1024
2022-11-13T07:41:08.948Z,1024
2022-11-13T07:43:06.383Z,1024
2022-11-13T07:45:08.920Z,1023
2022-11-13T07:47:09.971Z,1023
2022-11-13T07:49:06.378Z,1024
2022-11-13T07:51:09.343Z,1023
2022-11-13T07:53:07.693Z,1023
2022-11-13T07:55:09.114Z,1023
2022-11-13T07:57:08.163Z,1023
2022-11-13T07:59:06.323Z,1023
2022-11-13T08:01:06.500Z,1023
2022-11-13T08:03:06.320Z,1023
2022-11-13T08:05:08.725Z,1023
2022-11-13T08:07:11.255Z,1023
2022-11-13T08:09:06.691Z,1023
2022-11-13T08:11:10.471Z,1023
2022-11-13T08:13:08.068Z,1023
2022-11-13T08:15:12.200Z,1023
2022-11-13T08:17:10.457Z,1024
2022-11-13T08:19:06.428Z,1023
2022-11-13T08:21:10.568Z,1023
2022-11-13T08:23:10.882Z,1023
2022-11-13T08:25:10.116Z,1024
2022-11-13T08:29:33.837Z,1024
2022-11-13T08:31:59.471Z,1023
2022-11-13T08:33:56.030Z,1024
2022-11-13T08:36:01.063Z,1024
2022-11-13T08:37:55.244Z,1024
2022-11-13T08:39:59.017Z,1024
2022-11-13T08:41:59.342Z,1024
2022-11-13T08:43:55.122Z,1024
2022-11-13T08:45:57.811Z,1024
2022-11-13T08:47:53.980Z,1024
2022-11-13T08:49:52.034Z,1024
2022-11-13T08:51:53.758Z,1024
2022-11-13T08:53:55.491Z,1024
2022-11-13T08:55:54.001Z,1023
2022-11-13T08:57:54.340Z,1023
2022-11-13T08:59:53.984Z,1023
2022-11-13T09:01:52.079Z,1023
2022-11-13T09:03:56.713Z,1023
2022-11-13T09:05:54.057Z,1023
2022-11-13T09:07:57.453Z,1023
2022-11-13T09:09:54.167Z,1023
2022-11-13T09:11:51.467Z,1023
2022-11-13T09:13:53.392Z,1023
2022-11-13T09:16:01.240Z,1023
2022-11-13T09:17:51.684Z,1023
2022-11-13T09:20:04.171Z,1023
2022-11-13T09:23:57.988Z,1023
2022-11-13T09:25:55.692Z,1023
2022-11-13T09:27:55.401Z,1023
2022-11-13T09:29:55.787Z,1023
2022-11-13T09:31:56.817Z,1023
2022-11-13T09:33:57.277Z,1023
2022-11-13T09:35:52.168Z,1023
2022-11-13T09:37:57.557Z,1023
2022-11-13T09:40:01.311Z,1023
2022-11-13T09:41:51.413Z,1023
2022-11-13T09:43:55.294Z,1023
2022-11-13T09:45:57.561Z,1023
2022-11-13T09:47:53.235Z,1023
2022-11-13T09:49:55.359Z,1023
2022-11-13T09:51:51.844Z,1023
2022-11-13T09:54:01.536Z,1023
2022-11-13T09:56:01.291Z,1023
2022-11-13T09:58:00.613Z,1023
2022-11-13T09:59:54.468Z,1023
2022-11-13T10:01:55.426Z,1023
2022-11-13T10:04:01.788Z,1023
2022-11-13T10:05:57.824Z,1023
2022-11-13T10:07:52.336Z,1023
2022-11-13T10:09:51.802Z,1023
2022-11-13T10:12:02.048Z,1023
2022-11-13T10:14:01.909Z,1023
2022-11-13T10:15:53.934Z,1023
2022-11-13T10:17:56.896Z,1022
2022-11-13T10:19:52.220Z,1022
2022-11-13T10:22:02.835Z,1022
2022-11-13T10:23:52.027Z,1022
2022-11-13T10:25:57.451Z,1022
2022-11-13T10:27:54.887Z,1022
2022-11-13T10:29:52.128Z,1022
2022-11-13T10:31:58.062Z,1022
2022-11-13T10:33:59.326Z,1022
2022-11-13T10:35:54.345Z,1022
2022-11-13T10:37:52.523Z,1022
2022-11-13T10:39:53.994Z,1022
2022-11-13T10:41:53.653Z,1022
2022-11-13T10:44:00.822Z,1022
2022-11-13T10:45:52.485Z,1022
2022-11-13T10:48:02.916Z,1022
2022-11-13T10:49:52.293Z,1022
2022-11-13T10:51:57.669Z,1022
2022-11-13T10:53:57.461Z,1022
2022-11-13T10:55:54.111Z,1022
2022-11-13T10:57:59.577Z,1022
2022-11-13T11:00:00.094Z,1022
2022-11-13T11:01:58.567Z,1022
2022-11-13T11:03:52.143Z,1022
2022-11-13T11:06:01.111Z,1022
2022-11-13T11:07:56.201Z,1022
2022-11-13T11:09:57.540Z,1022
2022-11-13T11:11:55.395Z,1022
2022-11-13T11:14:01.595Z,1022
2022-11-13T11:15:59.345Z,1022
2022-11-13T11:18:00.914Z,1021
2022-11-13T11:19:59.107Z,1021
2022-11-13T11:21:53.466Z,1021
2022-11-13T11:24:00.593Z,1021
2022-11-13T11:25:58.394Z,1021
2022-11-13T11:27:59.158Z,1021
2022-11-13T11:29:58.555Z,1021
2022-11-13T11:32:01.321Z,1021
2022-11-13T11:33:56.595Z,1021
2022-11-13T11:36:00.948Z,1021
2022-11-13T11:37:57.834Z,1021
2022-11-13T11:39:51.815Z,1021
2022-11-13T11:42:00.112Z,1021
2022-11-13T11:43:57.193Z,1021
2022-11-13T11:45:58.951Z,1021
2022-11-13T11:47:54.557Z,1021
2022-11-13T11:49:55.676Z,1021
2022-11-13T11:51:55.497Z,1021
2022-11-13T11:54:00.886Z,1021
2022-11-13T11:55:53.820Z,1021
2022-11-13T11:57:51.710Z,1021
2022-11-13T11:59:59.517Z,1021
2022-11-13T12:01:54.012Z,1021
2022-11-13T12:03:57.724Z,1021
2022-11-13T12:06:00.401Z,1021
2022-11-13T12:07:56.501Z,1021
2022-11-13T12:10:00.805Z,1021
2022-11-13T12:11:56.567Z,1021
2022-11-13T12:13:56.627Z,1020
2022-11-13T12:15:56.393Z,1021
2022-11-13T12:17:59.502Z,1021
2022-11-13T12:19:59.764Z,1020
2022-11-13T12:21:59.690Z,1020
2022-11-13T12:23:53.926Z,1020
2022-11-13T12:25:59.244Z,1020
2022-11-13T12:27:56.880Z,1020
2022-11-13T12:29:58.459Z,1020
2022-11-13T12:31:57.713Z,1020
2022-11-13T12:34:01.393Z,1020
2022-11-13T12:35:57.624Z,1020
2022-11-13T12:37:53.742Z,1020
2022-11-13T12:39:59.610Z,1020
2022-11-13T12:41:51.965Z,1020
2022-11-13T12:44:01.633Z,1020
2022-11-13T12:46:00.055Z,1020
2022-11-13T12:47:54.022Z,1020
2022-11-13T12:49:57.583Z,1020
2022-11-13T12:51:57.455Z,1020
2022-11-13T12:53:54.097Z,1020
2022-11-13T12:56:00.779Z,1020
2022-11-13T12:57:56.971Z,1020
2022-11-13T12:59:55.875Z,1020
2022-11-13T13:01:57.586Z,1020
2022-11-13T13:03:55.551Z,1020
2022-11-13T13:06:02.041Z,1020
2022-11-13T13:08:03.700Z,1020
2022-11-13T13:09:52.063Z,1020
2022-11-13T13:11:55.613Z,1020
2022-11-13T13:13:53.773Z,1020
2022-11-13T13:15:57.201Z,1020
2022-11-13T13:17:53.285Z,1020
2022-11-13T13:20:01.889Z,1020
2022-11-13T13:21:59.196Z,1020
2022-11-13T13:23:59.852Z,1020
2022-11-13T13:25:52.180Z,1020
2022-11-13T13:27:57.979Z,1020
2022-11-13T13:29:58.769Z,1020
2022-11-13T13:31:57.473Z,1020
2022-11-13T13:34:00.698Z,1020
2022-11-13T13:35:56.399Z,1020
2022-11-13T13:37:58.330Z,1020
2022-11-13T13:39:51.458Z,1020
2022-11-13T13:41:52.181Z,1020
2022-11-13T13:43:57.258Z,1020
2022-11-13T13:46:02.374Z,1020
2022-11-13T13:47:55.581Z,1020
2022-11-13T13:49:53.520Z,1020
2022-11-13T13:51:51.806Z,1020
2022-11-13T13:55:54.908Z,1019
2022-11-13T13:57:53.701Z,1019
2022-11-13T14:00:00.733Z,1019
2022-11-13T14:01:56.596Z,1019
2022-11-13T14:03:55.359Z,1019
2022-11-13T14:05:51.843Z,1019
2022-11-13T14:07:59.288Z,1019
2022-11-13T14:09:57.831Z,1020
2022-11-13T14:11:51.728Z,1020
2022-11-13T14:13:51.388Z,1020
2022-11-13T14:15:59.043Z,1020
2022-11-13T14:17:52.406Z,1020
2022-11-13T14:20:01.721Z,1019
2022-11-13T14:21:53.010Z,1019
2022-11-13T14:23:54.894Z,1019
2022-11-13T14:25:59.377Z,1019
2022-11-13T14:28:00.397Z,1019
2022-11-13T14:29:51.665Z,1019
2022-11-13T14:32:00.452Z,1019
2022-11-13T14:33:55.004Z,1019
2022-11-13T14:35:58.280Z,1019
2022-11-13T14:37:53.872Z,1019
2022-11-13T14:39:56.992Z,1019
2022-11-13T14:41:51.839Z,1019
2022-11-13T14:43:58.212Z,1019
2022-11-13T14:46:01.689Z,1019
2022-11-13T14:47:58.658Z,1019
2022-11-13T14:49:59.651Z,1019
2022-11-13T14:51:57.200Z,1019
2022-11-13T14:53:57.731Z,1019
2022-11-13T14:55:59.473Z,1019
2022-11-13T14:57:56.499Z,1019
2022-11-13T14:59:51.856Z,1019
2022-11-13T15:02:00.115Z,1019
2022-11-13T15:03:58.075Z,1019
2022-11-13T15:05:54.985Z,1019
2022-11-13T15:09:54.268Z,1019
2022-11-13T15:12:00.852Z,1019
2022-11-13T15:14:01.489Z,1019
2022-11-13T15:15:58.667Z,1019
2022-11-13T15:17:52.362Z,1019
2022-11-13T15:19:56.772Z,1019
2022-11-13T15:22:20.776Z,1019
2022-11-13T15:23:55.226Z,1019
2022-11-13T15:25:59.652Z,1019
2022-11-13T15:27:55.384Z,1019
2022-11-13T15:29:54.151Z,1019
2022-11-13T15:32:02.864Z,1019
2022-11-13T15:33:59.623Z,1019
2022-11-13T15:35:59.353Z,1019
2022-11-13T15:40:00.795Z,1019
2022-11-13T15:41:58.480Z,1019
2022-11-13T15:43:59.700Z,1019
2022-11-13T15:46:00.934Z,1019
2022-11-13T15:48:01.489Z,1019
2022-11-13T15:50:10.166Z,1019
2022-11-13T15:51:55.716Z,1019
2022-11-13T15:53:54.151Z,1019
2022-11-13T15:56:01.442Z,1019
2022-11-13T15:57:51.485Z,1019
2022-11-13T16:00:01.733Z,1019
2022-11-13T16:01:58.037Z,1019
2022-11-13T16:03:51.905Z,1019
2022-11-13T16:06:01.848Z,1019
2022-11-13T16:07:56.616Z,1019
2022-11-13T16:10:00.200Z,1019
2022-11-13T16:11:53.319Z,1019
2022-11-13T16:14:00.706Z,1019
2022-11-13T16:15:56.335Z,1019
2022-11-13T16:17:56.313Z,1019
2022-11-13T16:19:51.970Z,1019
2022-11-13T16:21:53.516Z,1019
2022-11-13T16:23:54.556Z,1019
2022-11-13T16:25:58.564Z,1019
2022-11-13T16:27:55.595Z,1019
2022-11-13T16:30:06.480Z,1019
2022-11-13T16:32:01.777Z,1019
2022-11-13T16:33:53.066Z,1019
2022-11-13T16:35:57.034Z,1019
2022-11-13T16:38:01.770Z,1019
2022-11-13T16:39:58.203Z,1019
2022-11-13T16:41:51.918Z,1019
2022-11-13T16:43:57.192Z,1019
2022-11-13T16:46:02.217Z,1019
2022-11-13T16:47:51.531Z,1019
2022-11-13T16:50:02.461Z,1019
2022-11-13T16:53:51.888Z,1019
2022-11-13T16:55:57.933Z,1019
2022-11-13T16:57:58.931Z,1019
2022-11-13T16:59:51.880Z,1019
2022-11-13T17:01:55.350Z,1019
2022-11-13T17:03:55.774Z,1019
2022-11-13T17:05:51.932Z,1019
2022-11-13T17:07:56.633Z,1019
2022-11-13T17:10:10.291Z,1019
2022-11-13T17:11:55.253Z,1019
2022-11-13T17:13:56.797Z,1019
2022-11-13T17:16:00.943Z,1019
2022-11-13T17:18:00.264Z,1019
2022-11-13T17:19:55.243Z,1019
2022-11-13T17:21:51.850Z,1019
2022-11-13T17:23:56.137Z,1019
2022-11-13T17:25:51.418Z,1018
2022-11-13T17:27:54.477Z,1018
2022-11-13T17:29:57.356Z,1018
2022-11-13T17:31:53.122Z,1018
2022-11-13T17:33:56.108Z,1018
2022-11-13T17:35:58.281Z,1018
2022-11-13T17:38:00.766Z,1018
2022-11-13T17:39:51.887Z,1018
2022-11-13T17:41:59.827Z,1018
2022-11-13T17:43:56.856Z,1018
2022-11-13T17:45:55.113Z,1018
2022-11-13T17:47:50.728Z,1018
2022-11-13T17:49:50.701Z,1018
2022-11-13T17:51:55.566Z,1018
2022-11-13T17:53:50.711Z,1018
2022-11-13T17:55:59.030Z,1018
2022-11-13T17:58:00.687Z,1018
2022-11-13T17:59:50.722Z,1018
2022-11-13T18:01:56.216Z,1018
2022-11-13T18:03:50.703Z,1018
2022-11-13T18:05:50.729Z,1018
2022-11-13T18:07:50.700Z,1018
2022-11-13T18:10:01.018Z,1018
2022-11-13T18:11:55.025Z,1018
2022-11-13T18:13:56.353Z,1018
2022-11-13T18:15:52.120Z,1018
2022-11-13T18:17:50.743Z,1018
2022-11-13T18:20:01.405Z,1018
2022-11-13T18:22:02.140Z,1018
2022-11-13T18:23:51.066Z,1018
2022-11-13T18:25:54.846Z,1018
2022-11-13T18:27:50.734Z,1018
2022-11-13T18:29:56.285Z,1018
2022-11-13T18:31:50.715Z,1018
2022-11-13T18:33:51.390Z,1018
2022-11-13T18:35:53.164Z,1018
2022-11-13T18:37:55.298Z,1018
2022-11-13T18:39:50.759Z,1018
2022-11-13T18:41:50.693Z,1018
2022-11-13T18:43:54.323Z,1018
2022-11-13T18:45:59.001Z,1018
2022-11-13T18:49:50.758Z,1018
2022-11-13T18:51:55.743Z,1018
2022-11-13T18:53:50.749Z,1018
2022-11-13T18:55:50.685Z,1018
2022-11-13T18:57:55.132Z,1018
2022-11-13T18:59:50.784Z,1018
2022-11-13T19:01:50.827Z,1018
2022-11-13T19:04:08.622Z,1018
2022-11-13T19:05:50.700Z,1019
2022-11-13T19:07:51.110Z,1018
2022-11-13T19:09:50.807Z,1018
2022-11-13T19:11:58.630Z,1019
2022-11-13T19:14:06.596Z,1019
2022-11-13T19:15:50.724Z,1019
2022-11-13T19:17:54.837Z,1019
2022-11-13T19:19:50.730Z,1019
2022-11-13T19:21:50.805Z,1019
2022-11-13T19:23:51.278Z,1019
2022-11-13T19:25:50.717Z,1019
2022-11-13T19:27:54.912Z,1018
2022-11-13T19:30:02.509Z,1019
2022-11-13T19:33:50.754Z,1018
2022-11-13T19:35:50.721Z,1018
2022-11-13T19:39:55.117Z,1018
2022-11-13T19:41:55.702Z,1018
2022-11-13T19:43:50.736Z,1018
2022-11-13T19:45:50.686Z,1018
2022-11-13T19:47:53.095Z,1018
2022-11-13T19:49:50.719Z,1018
2022-11-13T19:51:50.699Z,1018
2022-11-13T19:53:53.583Z,1018
2022-11-13T19:55:51.130Z,1018
2022-11-13T19:57:51.051Z,1018
2022-11-13T19:59:56.022Z,1018
2022-11-13T20:01:51.243Z,1018
2022-11-13T20:03:50.682Z,1018
2022-11-13T20:07:51.306Z,1018
2022-11-13T20:09:51.271Z,1018
2022-11-13T20:11:54.988Z,1018
2022-11-13T20:13:50.738Z,1018
2022-11-13T20:15:59.633Z,1018
2022-11-13T20:17:50.692Z,1018
2022-11-13T20:19:50.770Z,1018
2022-11-13T20:21:50.751Z,1018
2022-11-13T20:23:55.465Z,1018
2022-11-13T20:25:50.748Z,1018
2022-11-13T20:27:50.721Z,1018
2022-11-13T20:29:57.434Z,1018
2022-11-13T20:31:50.726Z,1018
2022-11-13T20:33:50.724Z,1018
2022-11-13T20:35:59.035Z,1018
2022-11-13T20:37:50.751Z,1018
2022-11-13T20:39:50.722Z,1018
2022-11-13T20:41:54.976Z,1018
2022-11-13T20:43:50.716Z,1018
2022-11-13T20:45:50.757Z,1018
2022-11-13T20:48:01.794Z,1018
2022-11-13T20:49:52.548Z,1018
2022-11-13T20:52:02.392Z,1018
2022-11-13T20:53:50.732Z,1018
2022-11-13T20:55:50.731Z,1018
2022-11-13T20:57:59.709Z,1018
2022-11-13T20:59:50.724Z,1018
2022-11-13T21:01:54.886Z,1018
2022-11-13T21:03:50.767Z,1018
2022-11-13T21:05:54.545Z,1018
2022-11-13T21:07:50.765Z,1018
2022-11-13T21:09:53.449Z,1018
2022-11-13T21:11:59.934Z,1018
2022-11-13T21:13:50.741Z,1018
2022-11-13T21:16:01.583Z,1018
2022-11-13T21:17:56.111Z,1018
2022-11-13T21:19:55.029Z,1018
2022-11-13T21:21:50.800Z,1018
2022-11-13T21:23:59.206Z,1018
2022-11-13T21:25:50.746Z,1018
2022-11-13T21:27:50.737Z,1018
2022-11-13T21:30:01.016Z,1018
2022-11-13T21:31:50.725Z,1018
2022-11-13T21:33:50.712Z,1018
2022-11-13T21:36:01.913Z,1018
2022-11-13T21:37:54.909Z,1018
2022-11-13T21:39:50.736Z,1018
2022-11-13T21:41:50.794Z,1018
2022-11-13T21:45:51.040Z,1018
2022-11-13T21:47:50.804Z,1018
2022-11-13T21:49:56.460Z,1018
2022-11-13T21:51:50.760Z,1018
2022-11-13T21:53:58.284Z,1018
2022-11-13T21:56:00.516Z,1018
2022-11-13T21:57:50.720Z,1018
2022-11-13T21:59:57.768Z,1018
2022-11-13T22:01:50.809Z,1018
2022-11-13T22:03:50.870Z,1018
2022-11-13T22:05:52.548Z,1018
2022-11-13T22:07:51.135Z,1018
2022-11-13T22:09:51.190Z,1018
2022-11-13T22:12:00.281Z,1018
2022-11-13T22:13:51.274Z,1018
2022-11-13T22:15:56.451Z,1018
2022-11-13T22:18:02.039Z,1018
2022-11-13T22:19:50.792Z,1018
2022-11-13T22:21:50.762Z,1018
2022-11-13T22:23:59.034Z,1018
2022-11-13T22:25:58.246Z,1018
2022-11-13T22:27:59.777Z,1018
2022-11-13T22:29:50.724Z,1018
2022-11-13T22:31:50.789Z,1018
2022-11-13T22:33:54.553Z,1018
2022-11-13T22:35:52.742Z,1018
2022-11-13T22:37:58.775Z,1018
2022-11-13T22:40:02.307Z,1018
2022-11-13T22:41:50.836Z,1018
2022-11-13T22:43:50.730Z,1018
2022-11-13T22:47:50.774Z,1018
2022-11-13T22:51:55.883Z,1018
2022-11-13T22:53:50.744Z,1018
2022-11-13T22:55:57.411Z,1018
2022-11-13T22:57:51.081Z,1018
2022-11-13T22:59:50.836Z,1018
2022-11-13T23:01:57.938Z,1018
2022-11-13T23:03:53.553Z,1018
2022-11-13T23:05:50.725Z,1018
2022-11-13T23:07:51.190Z,1018
2022-11-13T23:10:01.103Z,1018
2022-11-13T23:11:57.349Z,1018
2022-11-13T23:13:50.788Z,1018
2022-11-13T23:15:55.676Z,1018
2022-11-13T23:17:50.739Z,1018
2022-11-13T23:19:50.831Z,1018
2022-11-13T23:21:50.760Z,1018
2022-11-13T23:23:56.993Z,1018
2022-11-13T23:25:54.549Z,1018
2022-11-13T23:27:50.757Z,1018
2022-11-13T23:29:50.734Z,1018
2022-11-13T23:31:50.760Z,1018
2022-11-13T23:33:50.780Z,1018
2022-11-13T23:35:59.034Z,1018
2022-11-13T23:37:50.878Z,1018
2022-11-13T23:39:59.581Z,1018
2022-11-13T23:41:50.812Z,1017
2022-11-13T23:44:09.448Z,1017
2022-11-13T23:45:54.775Z,1017
2022-11-13T23:47:56.848Z,1017
2022-11-13T23:49:56.102Z,1017
2022-11-13T23:51:50.723Z,1018
2022-11-13T23:53:54.586Z,1017
2022-11-13T23:55:50.784Z,1017
2022-11-13T23:57:50.781Z,1017
2022-11-13T23:59:57.827Z,1017
